Time;durP1;ratioP1;P1;durP2;ratioP2;P2;SDS_P1;SDS_P2;PMS_P1;PMS_P2;Temp;Humidity;BMP_temperature;BMP_pressure;BME280_temperature;BME280_humidity;BME280_pressure;Samples;Min_cycle;Max_cycle;Signal;HPM_P1;HPM_P2
2021/09/15 00:01:33;;;;;;;5.97;5.47;;;22.00;99.90;;;;;;5067960;28;20639;-77
2021/09/15 00:04:00;;;;;;;6.20;5.70;;;22.00;99.90;;;;;;5081665;28;20241;-80
2021/09/15 00:06:28;;;;;;;5.97;5.47;;;22.10;99.90;;;;;;5077403;28;20229;-79
2021/09/15 00:08:57;;;;;;;6.10;5.60;;;22.00;99.90;;;;;;5074294;28;20314;-78
2021/09/15 00:11:24;;;;;;;6.40;5.82;;;21.90;99.90;;;;;;5075420;28;20233;-78
2021/09/15 00:13:53;;;;;;;6.72;6.00;;;21.90;99.90;;;;;;5076034;28;20237;-79
2021/09/15 00:16:20;;;;;;;6.38;5.65;;;21.80;99.90;;;;;;5073591;28;20224;-77
2021/09/15 00:18:47;;;;;;;6.43;5.93;;;21.80;99.90;;;;;;5072801;28;20230;-78
2021/09/15 00:21:14;;;;;;;6.30;5.80;;;21.80;99.90;;;;;;5075105;28;20229;-78
2021/09/15 00:23:41;;;;;;;6.53;5.93;;;21.80;99.90;;;;;;5079483;28;20775;-77
2021/09/15 00:26:08;;;;;;;6.95;6.35;;;21.80;99.90;;;;;;5081971;28;20658;-76
2021/09/15 00:28:35;;;;;;;6.90;6.30;;;21.80;99.90;;;;;;5078129;28;20221;-78
2021/09/15 00:31:03;;;;;;;6.82;6.28;;;21.70;99.90;;;;;;5079892;28;20252;-77
2021/09/15 00:33:30;;;;;;;6.35;5.80;;;21.70;99.90;;;;;;5077842;28;20234;-78
2021/09/15 00:35:57;;;;;;;7.07;6.47;;;21.70;99.90;;;;;;5082055;28;20244;-77
2021/09/15 00:38:24;;;;;;;6.15;5.65;;;21.70;99.90;;;;;;5080562;28;20267;-77
2021/09/15 00:40:52;;;;;;;6.35;5.75;;;21.70;99.90;;;;;;5080498;28;20294;-78
2021/09/15 00:43:19;;;;;;;6.72;6.13;;;21.60;99.90;;;;;;5086834;28;20217;-76
2021/09/15 00:45:46;;;;;;;5.90;5.40;;;21.60;99.90;;;;;;5082196;28;20291;-77
2021/09/15 00:48:14;;;;;;;6.65;6.05;;;21.60;99.90;;;;;;5081437;28;20225;-77
2021/09/15 00:50:42;;;;;;;6.70;6.10;;;21.60;99.90;;;;;;5081435;28;20278;-78
2021/09/15 00:53:09;;;;;;;6.47;5.95;;;21.50;99.90;;;;;;5085234;28;20236;-77
2021/09/15 00:55:36;;;;;;;6.35;5.85;;;21.60;99.90;;;;;;5082242;28;20233;-78
2021/09/15 00:58:03;;;;;;;7.00;6.20;;;21.50;99.90;;;;;;5097902;28;20259;-77
2021/09/15 01:00:30;;;;;;;7.55;6.85;;;21.50;99.90;;;;;;5081357;28;20703;-77
2021/09/15 01:02:58;;;;;;;6.10;5.60;;;21.40;99.90;;;;;;5078052;28;20220;-77
2021/09/15 01:05:27;;;;;;;6.18;5.68;;;21.40;99.90;;;;;;5072332;28;20283;-78
2021/09/15 01:07:57;;;;;;;6.35;5.72;;;21.40;99.90;;;;;;5077024;28;20263;-78
2021/09/15 01:10:24;;;;;;;6.50;5.90;;;21.40;99.90;;;;;;5075213;28;20646;-78
2021/09/15 01:12:53;;;;;;;6.00;5.50;;;21.40;99.90;;;;;;5072424;28;20221;-78
2021/09/15 01:15:20;;;;;;;6.30;5.70;;;21.40;99.90;;;;;;5074051;28;20636;-77
2021/09/15 01:17:47;;;;;;;6.20;5.60;;;21.40;99.90;;;;;;5072248;28;20238;-77
2021/09/15 01:20:14;;;;;;;6.45;5.95;;;21.40;99.90;;;;;;5072215;28;20229;-77
2021/09/15 01:22:42;;;;;;;6.10;5.63;;;21.40;99.90;;;;;;5078187;28;20217;-78
2021/09/15 01:25:10;;;;;;;6.68;6.18;;;21.40;99.90;;;;;;5077365;28;20646;-77
2021/09/15 01:27:37;;;;;;;6.13;5.63;;;21.40;99.90;;;;;;5080150;28;20657;-79
2021/09/15 01:30:05;;;;;;;6.68;6.07;;;21.30;99.90;;;;;;5073923;28;20294;-78
2021/09/15 01:32:32;;;;;;;6.47;5.97;;;21.30;99.90;;;;;;5080075;28;20283;-76
2021/09/15 01:34:59;;;;;;;6.40;5.90;;;21.30;99.90;;;;;;5078859;28;20237;-77
2021/09/15 01:37:26;;;;;;;6.28;5.38;;;21.30;99.90;;;;;;5081383;28;20768;-78
2021/09/15 01:39:54;;;;;;;6.97;6.32;;;21.30;99.90;;;;;;5079935;28;20686;-76
2021/09/15 01:42:24;;;;;;;6.60;6.00;;;21.30;99.90;;;;;;5078664;28;20480;-76
2021/09/15 01:44:51;;;;;;;5.85;5.25;;;21.20;99.90;;;;;;5081417;28;20716;-77
2021/09/15 01:47:19;;;;;;;6.38;5.88;;;21.20;99.90;;;;;;5079522;28;20229;-77
2021/09/15 01:49:47;;;;;;;7.18;6.57;;;21.20;99.90;;;;;;5079948;28;20229;-78
2021/09/15 01:52:16;;;;;;;6.10;5.60;;;21.20;99.90;;;;;;5094462;28;20225;-77
2021/09/15 01:54:43;;;;;;;7.53;6.88;;;21.20;99.90;;;;;;5079349;28;20275;-76
2021/09/15 01:57:13;;;;;;;6.85;6.25;;;21.20;99.90;;;;;;5078614;28;20241;-77
2021/09/15 01:59:40;;;;;;;6.75;6.18;;;21.10;99.90;;;;;;5078058;28;20316;-77
2021/09/15 02:02:10;;;;;;;6.45;5.95;;;21.10;99.90;;;;;;5075525;28;20238;-77
2021/09/15 02:04:38;;;;;;;8.90;6.72;;;21.10;99.90;;;;;;5084656;28;20755;-78
2021/09/15 02:07:05;;;;;;;6.15;5.65;;;21.10;99.90;;;;;;5079509;28;20249;-79
2021/09/15 02:09:33;;;;;;;6.57;6.05;;;21.10;99.90;;;;;;5080605;28;20229;-77
2021/09/15 02:12:00;;;;;;;6.90;6.30;;;21.00;99.90;;;;;;5084724;28;20233;-77
2021/09/15 02:14:28;;;;;;;7.32;6.72;;;21.00;99.90;;;;;;5078987;28;20233;-78
2021/09/15 02:16:55;;;;;;;6.57;5.90;;;21.00;99.90;;;;;;5079483;28;20659;-77
2021/09/15 02:19:22;;;;;;;6.85;6.28;;;21.00;99.90;;;;;;5076081;28;20225;-77
2021/09/15 02:21:49;;;;;;;6.75;6.25;;;21.00;99.90;;;;;;5081154;28;20727;-78
2021/09/15 02:24:17;;;;;;;6.97;6.25;;;21.00;99.90;;;;;;5080160;28;20237;-78
2021/09/15 02:26:44;;;;;;;6.88;6.28;;;21.00;99.90;;;;;;5079688;28;20234;-77
2021/09/15 02:29:11;;;;;;;7.03;6.43;;;21.00;99.90;;;;;;5080685;28;20636;-78
2021/09/15 02:31:40;;;;;;;6.43;5.93;;;20.80;99.90;;;;;;5075557;28;20229;-77
2021/09/15 02:34:07;;;;;;;7.38;5.88;;;20.80;99.90;;;;;;5081030;28;20278;-77
2021/09/15 02:36:34;;;;;;;7.25;6.60;;;20.80;99.90;;;;;;5075630;28;20222;-77
2021/09/15 02:39:01;;;;;;;6.97;6.45;;;20.80;99.90;;;;;;5081441;28;20241;-78
2021/09/15 02:41:28;;;;;;;7.20;6.60;;;20.80;99.90;;;;;;5078325;28;20230;-78
2021/09/15 02:43:55;;;;;;;6.70;6.20;;;20.80;99.90;;;;;;5092095;28;20209;-80
2021/09/15 02:46:22;;;;;;;6.88;6.28;;;20.80;99.90;;;;;;5084775;28;20226;-78
2021/09/15 02:48:50;;;;;;;6.68;6.18;;;20.80;99.90;;;;;;5075627;28;20221;-78
2021/09/15 02:51:17;;;;;;;6.93;6.32;;;20.70;99.90;;;;;;5081935;28;20225;-78
2021/09/15 02:53:44;;;;;;;6.78;6.25;;;20.70;99.90;;;;;;5082046;28;20237;-77
2021/09/15 02:56:11;;;;;;;7.20;6.68;;;20.70;99.90;;;;;;5080277;28;20230;-78
2021/09/15 02:58:38;;;;;;;7.18;6.43;;;20.70;99.90;;;;;;5083312;28;20221;-78
2021/09/15 03:01:06;;;;;;;6.60;6.05;;;20.70;99.90;;;;;;5081971;28;20654;-78
2021/09/15 03:03:33;;;;;;;6.72;6.22;;;20.70;99.90;;;;;;5085551;28;20446;-78
2021/09/15 03:06:01;;;;;;;6.40;5.90;;;20.60;99.90;;;;;;5077867;28;20218;-78
2021/09/15 03:08:28;;;;;;;6.88;6.32;;;20.60;99.90;;;;;;5079929;28;20225;-78
2021/09/15 03:10:55;;;;;;;7.10;6.50;;;20.60;99.90;;;;;;5083000;28;20275;-77
2021/09/15 03:13:22;;;;;;;6.88;6.28;;;20.60;99.90;;;;;;5081556;28;20217;-78
2021/09/15 03:15:49;;;;;;;6.72;6.22;;;20.60;99.90;;;;;;5083845;28;20291;-78
2021/09/15 03:18:16;;;;;;;7.50;6.80;;;20.50;99.90;;;;;;5077217;28;20246;-78
2021/09/15 03:20:43;;;;;;;6.55;6.05;;;20.50;99.90;;;;;;5080997;28;20237;-77
2021/09/15 03:23:12;;;;;;;6.30;5.80;;;20.50;99.90;;;;;;5079761;28;20229;-78
2021/09/15 03:25:39;;;;;;;7.22;5.85;;;20.50;99.90;;;;;;5082157;28;20244;-79
2021/09/15 03:28:06;;;;;;;6.80;6.20;;;20.50;99.90;;;;;;5079803;28;20234;-77
2021/09/15 03:30:33;;;;;;;6.93;6.30;;;20.40;99.90;;;;;;5081104;28;20233;-77
2021/09/15 03:33:00;;;;;;;7.13;6.53;;;20.40;99.90;;;;;;5074178;28;20314;-78
2021/09/15 03:35:27;;;;;;;6.10;5.60;;;20.40;99.90;;;;;;5078473;28;20241;-77
2021/09/15 03:37:54;;;;;;;6.35;5.85;;;20.30;99.90;;;;;;5095227;28;20220;-79
2021/09/15 03:40:23;;;;;;;6.65;6.13;;;20.30;99.90;;;;;;5078623;28;20232;-78
2021/09/15 03:42:51;;;;;;;6.82;6.22;;;20.30;99.90;;;;;;5083856;28;20224;-77
2021/09/15 03:45:18;;;;;;;6.88;6.38;;;20.30;99.90;;;;;;5075900;28;20221;-78
2021/09/15 03:47:45;;;;;;;6.80;6.22;;;20.30;99.90;;;;;;5080248;28;20229;-78
2021/09/15 03:50:12;;;;;;;6.15;5.65;;;20.30;99.90;;;;;;5076090;28;22137;-77
2021/09/15 03:52:42;;;;;;;6.50;6.00;;;20.30;99.90;;;;;;5079102;28;20221;-78
2021/09/15 03:55:10;;;;;;;7.53;6.82;;;20.30;99.90;;;;;;5081223;28;20229;-77
2021/09/15 03:57:39;;;;;;;6.72;6.13;;;20.30;99.90;;;;;;5079920;28;20213;-78
2021/09/15 04:00:07;;;;;;;8.18;6.68;;;20.30;99.90;;;;;;5041501;28;20244;-78
2021/09/15 04:02:34;;;;;;;7.05;6.40;;;20.30;99.90;;;;;;5079141;28;20695;-78
2021/09/15 04:05:01;;;;;;;7.57;6.75;;;20.30;99.90;;;;;;5071451;28;20250;-78
2021/09/15 04:07:28;;;;;;;7.78;6.97;;;20.30;99.90;;;;;;5077292;28;20225;-78
2021/09/15 04:09:55;;;;;;;7.40;6.70;;;20.30;99.90;;;;;;5075488;28;20286;-78
2021/09/15 04:12:22;;;;;;;7.07;6.47;;;20.20;99.90;;;;;;5075770;28;20759;-77
2021/09/15 04:14:50;;;;;;;7.18;6.57;;;20.10;99.90;;;;;;5075944;28;20283;-77
2021/09/15 04:17:17;;;;;;;7.28;6.68;;;20.10;99.90;;;;;;5076601;28;20279;-78
2021/09/15 04:19:44;;;;;;;7.03;6.43;;;20.10;99.90;;;;;;5078440;28;20265;-76
2021/09/15 04:22:17;;;;;;;7.28;6.68;;;20.10;99.90;;;;;;5076921;28;20714;-78
2021/09/15 04:33:07;;;;;;;8.13;7.40;;;20.00;99.90;;;;;;5080064;28;20609;-76
2021/09/15 04:35:34;;;;;;;7.72;7.03;;;20.00;99.90;;;;;;5075804;28;20290;-77
2021/09/15 04:38:01;;;;;;;6.68;6.10;;;20.00;99.90;;;;;;5078817;28;20291;-77
2021/09/15 04:40:28;;;;;;;7.50;6.88;;;20.00;99.90;;;;;;5078568;28;20282;-78
2021/09/15 04:42:55;;;;;;;7.35;6.72;;;20.00;99.90;;;;;;5079592;28;20221;-78
2021/09/15 04:45:23;;;;;;;7.50;6.90;;;20.00;99.90;;;;;;5077619;28;20278;-77
2021/09/15 04:47:51;;;;;;;7.05;6.43;;;19.90;99.90;;;;;;5079806;28;20282;-77
2021/09/15 04:50:18;;;;;;;7.22;6.63;;;19.90;99.90;;;;;;5079349;28;20233;-78
2021/09/15 04:52:45;;;;;;;6.82;6.32;;;19.90;99.90;;;;;;5078713;28;20692;-78
2021/09/15 04:55:12;;;;;;;6.88;6.28;;;19.90;99.90;;;;;;5076742;28;20233;-77
2021/09/15 04:57:39;;;;;;;9.10;7.25;;;19.90;99.90;;;;;;5077381;28;20233;-77
2021/09/15 05:00:08;;;;;;;7.35;6.47;;;19.90;99.90;;;;;;5017999;28;20731;-77
2021/09/15 05:02:36;;;;;;;7.60;7.00;;;19.90;99.90;;;;;;5089010;28;20221;-78
2021/09/15 05:05:03;;;;;;;7.15;6.55;;;19.90;99.90;;;;;;5077311;28;20722;-77
2021/09/15 05:07:30;;;;;;;8.43;7.65;;;19.80;99.90;;;;;;5077353;28;25312;-78
2021/09/15 05:09:57;;;;;;;7.45;6.75;;;19.80;99.90;;;;;;5076280;28;20221;-77
2021/09/15 05:12:24;;;;;;;7.60;6.85;;;19.90;99.90;;;;;;5076839;28;21138;-77
2021/09/15 05:14:51;;;;;;;6.90;6.40;;;19.90;99.90;;;;;;5072488;28;20265;-77
2021/09/15 05:17:18;;;;;;;10.27;6.88;;;19.90;99.90;;;;;;5076861;28;20228;-77
2021/09/15 05:19:46;;;;;;;7.45;6.85;;;19.90;99.90;;;;;;5071850;28;20294;-77
2021/09/15 05:22:13;;;;;;;7.85;7.15;;;20.00;99.90;;;;;;5073427;28;20217;-77
2021/09/15 05:24:40;;;;;;;7.55;6.85;;;20.00;99.90;;;;;;5090319;28;20229;-78
2021/09/15 05:27:07;;;;;;;7.35;6.65;;;20.10;99.90;;;;;;5077240;28;20244;-77
2021/09/15 05:29:34;;;;;;;11.80;7.20;;;20.20;99.90;;;;;;5077691;28;20232;-77
2021/09/15 05:32:01;;;;;;;7.53;6.82;;;20.30;99.90;;;;;;5073684;28;20225;-76
2021/09/15 05:34:29;;;;;;;8.05;7.22;;;20.40;99.90;;;;;;5063751;28;20225;-78
2021/09/15 05:36:57;;;;;;;8.38;7.68;;;20.60;99.90;;;;;;5070023;28;20618;-77
2021/09/15 05:39:24;;;;;;;9.35;8.55;;;20.80;99.90;;;;;;5065744;28;20747;-77
2021/09/15 05:41:51;;;;;;;7.95;7.25;;;20.90;99.90;;;;;;5066270;28;20298;-76
2021/09/15 05:44:18;;;;;;;10.57;8.07;;;21.20;99.90;;;;;;5067327;28;21033;-77
2021/09/15 05:46:45;;;;;;;8.20;7.47;;;21.20;99.90;;;;;;5065515;28;20517;-77
2021/09/15 05:49:12;;;;;;;8.73;7.95;;;21.30;99.90;;;;;;5067424;28;20282;-77
2021/09/15 05:51:39;;;;;;;9.05;8.32;;;21.50;99.90;;;;;;5063731;28;20234;-77
2021/09/15 05:54:08;;;;;;;8.77;8.02;;;21.40;99.90;;;;;;5068702;28;20666;-78
2021/09/15 05:56:36;;;;;;;9.68;8.75;;;21.20;99.90;;;;;;5063655;28;20633;-77
2021/09/15 05:59:03;;;;;;;10.05;8.50;;;21.10;99.90;;;;;;5066789;28;20712;-77
2021/09/15 06:01:30;;;;;;;8.52;7.78;;;21.00;99.90;;;;;;5063526;28;20244;-75
2021/09/15 06:03:57;;;;;;;9.25;8.45;;;21.00;99.90;;;;;;5067346;28;20229;-76
2021/09/15 06:06:24;;;;;;;9.38;8.32;;;21.00;99.90;;;;;;5068298;28;20710;-77
2021/09/15 06:08:51;;;;;;;9.43;8.43;;;20.90;99.90;;;;;;5062501;28;20245;-77
2021/09/15 06:11:19;;;;;;;9.43;8.35;;;20.90;99.90;;;;;;5070443;28;20225;-78
2021/09/15 06:13:47;;;;;;;8.93;8.13;;;20.90;99.90;;;;;;5069131;28;20283;-77
2021/09/15 06:16:14;;;;;;;9.20;8.30;;;20.90;99.90;;;;;;5067558;28;20334;-76
2021/09/15 06:18:41;;;;;;;9.35;8.55;;;20.80;99.90;;;;;;5064886;28;20237;-77
2021/09/15 06:21:08;;;;;;;9.13;8.43;;;20.90;99.90;;;;;;5066505;28;20229;-76
2021/09/15 06:23:35;;;;;;;9.68;8.88;;;21.00;99.90;;;;;;5066409;27;20225;-77
2021/09/15 06:26:03;;;;;;;9.20;8.30;;;21.10;99.90;;;;;;5065818;28;20225;-75
2021/09/15 06:28:31;;;;;;;10.95;9.98;;;21.20;99.90;;;;;;5069984;28;20232;-77
2021/09/15 06:30:59;;;;;;;8.77;7.88;;;21.30;99.90;;;;;;5064455;28;20236;-76
2021/09/15 06:33:26;;;;;;;9.13;7.80;;;21.40;99.90;;;;;;5063518;28;20229;-76
2021/09/15 06:35:54;;;;;;;9.52;8.63;;;21.30;99.90;;;;;;5066195;28;20650;-76
2021/09/15 06:38:21;;;;;;;9.32;8.50;;;21.30;99.90;;;;;;5063925;28;20298;-75
2021/09/15 06:40:48;;;;;;;10.35;9.45;;;21.10;99.90;;;;;;5065962;28;21201;-77
2021/09/15 06:43:16;;;;;;;10.38;9.15;;;20.70;99.90;;;;;;5064189;28;20229;-77
2021/09/15 06:45:44;;;;;;;9.02;8.32;;;20.50;99.90;;;;;;5062691;28;20236;-77
2021/09/15 06:48:13;;;;;;;9.27;8.32;;;20.40;99.90;;;;;;5069502;28;20244;-76
2021/09/15 06:50:40;;;;;;;9.52;8.65;;;20.30;99.90;;;;;;5064294;28;20230;-77
2021/09/15 06:53:07;;;;;;;8.43;7.72;;;20.20;99.90;;;;;;5068310;28;20282;-77
2021/09/15 06:55:35;;;;;;;8.73;8.02;;;20.20;99.90;;;;;;5065070;28;20237;-77
2021/09/15 06:58:02;;;;;;;8.20;7.40;;;20.30;99.90;;;;;;5068787;28;20363;-76
2021/09/15 07:00:29;;;;;;;8.00;7.30;;;20.40;99.90;;;;;;5062426;28;20534;-76
2021/09/15 07:02:57;;;;;;;9.35;8.35;;;20.50;99.90;;;;;;5064476;28;20241;-76
2021/09/15 07:05:25;;;;;;;8.88;8.02;;;20.50;99.90;;;;;;5062781;28;20232;-77
2021/09/15 07:07:52;;;;;;;9.20;8.40;;;20.40;99.90;;;;;;5066980;28;20244;-77
2021/09/15 07:10:19;;;;;;;8.73;8.02;;;20.40;99.90;;;;;;5071958;28;20255;-78
2021/09/15 07:12:47;;;;;;;9.23;8.43;;;20.30;99.90;;;;;;5076816;28;20225;-77
2021/09/15 07:15:15;;;;;;;9.65;8.63;;;20.20;99.90;;;;;;5063837;28;20229;-77
2021/09/15 07:17:44;;;;;;;10.27;9.38;;;20.10;99.90;;;;;;5064400;28;20918;-77
2021/09/15 07:20:14;;;;;;;8.88;8.07;;;20.10;99.90;;;;;;5069776;28;20237;-77
2021/09/15 07:22:42;;;;;;;9.75;8.95;;;20.20;99.90;;;;;;5065352;28;20222;-77
2021/09/15 07:25:11;;;;;;;8.88;8.18;;;20.50;99.90;;;;;;5067196;28;20712;-76
2021/09/15 07:27:38;;;;;;;9.15;8.35;;;20.60;99.90;;;;;;5065297;28;20225;-77
2021/09/15 07:30:06;;;;;;;9.48;8.68;;;20.90;99.90;;;;;;5065128;28;20228;-77
2021/09/15 07:32:33;;;;;;;8.85;8.10;;;21.10;99.90;;;;;;5063123;28;20236;-78
2021/09/15 07:35:00;;;;;;;8.10;7.40;;;21.20;99.90;;;;;;5068986;28;20225;-77
2021/09/15 07:37:29;;;;;;;9.40;8.52;;;21.30;99.90;;;;;;5061234;28;20225;-77
2021/09/15 07:39:57;;;;;;;9.98;9.07;;;21.40;99.90;;;;;;5062986;28;20912;-78
2021/09/15 07:42:25;;;;;;;10.27;9.35;;;21.40;99.90;;;;;;5063902;28;20244;-78
2021/09/15 07:44:52;;;;;;;10.55;9.68;;;21.40;99.90;;;;;;5061972;28;20728;-77
2021/09/15 07:47:19;;;;;;;10.15;9.25;;;21.40;99.90;;;;;;5066116;28;20253;-77
2021/09/15 07:49:49;;;;;;;10.05;9.15;;;21.40;99.90;;;;;;5060724;28;20225;-76
2021/09/15 07:52:17;;;;;;;11.80;10.80;;;21.50;99.90;;;;;;5060005;28;20746;-77
2021/09/15 07:54:45;;;;;;;11.88;10.88;;;22.00;99.90;;;;;;5064117;28;20473;-77
2021/09/15 07:57:12;;;;;;;12.77;11.05;;;22.50;99.90;;;;;;5063709;28;20519;-76
2021/09/15 07:59:40;;;;;;;12.32;10.00;;;22.50;99.90;;;;;;5063279;28;20264;-77
2021/09/15 08:02:07;;;;;;;10.10;9.10;;;22.30;99.90;;;;;;5065463;28;20233;-77
2021/09/15 08:04:34;;;;;;;10.35;9.50;;;22.10;99.90;;;;;;5083188;28;20233;-76
2021/09/15 08:07:01;;;;;;;9.57;8.68;;;21.90;99.90;;;;;;5064165;28;20233;-76
2021/09/15 08:09:28;;;;;;;10.25;9.43;;;21.80;99.90;;;;;;5067843;28;20225;-76
2021/09/15 08:11:57;;;;;;;10.45;9.50;;;21.70;99.90;;;;;;5069995;28;20233;-77
2021/09/15 08:14:26;;;;;;;10.35;9.45;;;21.50;99.90;;;;;;5069312;28;20626;-77
2021/09/15 08:16:53;;;;;;;10.88;9.95;;;21.50;99.90;;;;;;5066595;28;20737;-77
2021/09/15 08:19:21;;;;;;;9.73;8.82;;;21.50;99.90;;;;;;5066050;28;20225;-77
2021/09/15 08:21:48;;;;;;;9.27;8.48;;;21.40;99.90;;;;;;5060814;28;20229;-77
2021/09/15 08:24:15;;;;;;;9.63;8.73;;;21.30;99.90;;;;;;5064355;28;20328;-76
2021/09/15 08:26:42;;;;;;;9.65;8.75;;;21.30;99.90;;;;;;5064766;28;20221;-77
2021/09/15 08:29:11;;;;;;;10.20;9.30;;;21.40;99.90;;;;;;5068247;28;20547;-76
2021/09/15 08:31:38;;;;;;;10.05;9.05;;;21.50;99.90;;;;;;5061044;28;20241;-77
2021/09/15 08:34:05;;;;;;;11.10;10.07;;;21.60;99.90;;;;;;5064681;28;20750;-76
2021/09/15 08:36:32;;;;;;;10.13;9.25;;;21.60;99.90;;;;;;5062278;28;20225;-76
2021/09/15 08:38:59;;;;;;;10.35;9.45;;;21.60;99.90;;;;;;5063485;28;21506;-76
2021/09/15 08:41:26;;;;;;;9.80;8.90;;;21.50;99.90;;;;;;5062827;28;21051;-76
2021/09/15 08:43:53;;;;;;;9.73;8.82;;;21.50;99.90;;;;;;5061649;28;20233;-77
2021/09/15 08:46:24;;;;;;;8.93;8.15;;;21.60;99.90;;;;;;5065026;28;20220;-75
2021/09/15 08:48:52;;;;;;;9.70;8.90;;;21.80;99.90;;;;;;5066266;28;20225;-77
2021/09/15 08:51:23;;;;;;;10.15;9.25;;;21.90;99.90;;;;;;5064848;28;20334;-76
2021/09/15 08:53:51;;;;;;;10.45;9.55;;;21.90;99.90;;;;;;5061409;28;20278;-77
2021/09/15 08:56:18;;;;;;;11.65;10.65;;;21.80;99.90;;;;;;5066363;28;20687;-78
2021/09/15 08:58:45;;;;;;;9.95;9.15;;;21.60;99.90;;;;;;5077249;28;20218;-77
2021/09/15 09:01:17;;;;;;;9.80;8.95;;;21.50;99.90;;;;;;5064320;28;20737;-76
2021/09/15 09:03:51;;;;;;;8.80;8.10;;;21.50;99.90;;;;;;5061990;28;20235;-77
2021/09/15 09:06:21;;;;;;;9.82;8.85;;;21.40;99.90;;;;;;5059054;28;20782;-76
2021/09/15 09:08:53;;;;;;;9.38;8.57;;;21.30;99.90;;;;;;5061229;28;20239;-77
2021/09/15 09:11:21;;;;;;;9.13;8.32;;;21.30;99.90;;;;;;5059531;28;20655;-75
2021/09/15 09:13:50;;;;;;;8.85;8.02;;;21.30;99.90;;;;;;5067570;28;20237;-77
2021/09/15 09:16:18;;;;;;;8.55;7.80;;;21.30;99.90;;;;;;5063938;28;20221;-77
2021/09/15 09:19:01;;;;;;;8.25;7.57;;;21.40;99.90;;;;;;5063425;28;20789;-75
2021/09/15 09:21:30;;;;;;;8.65;7.95;;;21.40;99.90;;;;;;5059340;28;20225;-77
2021/09/15 09:23:59;;;;;;;10.73;9.82;;;21.40;99.90;;;;;;5067252;28;20240;-78
2021/09/15 09:26:45;;;;;;;8.27;7.68;;;21.40;99.90;;;;;;5062193;28;20226;-77
2021/09/15 09:29:13;;;;;;;9.05;8.20;;;21.50;99.90;;;;;;5064686;28;20224;-76
2021/09/15 09:31:41;;;;;;;7.70;7.10;;;21.50;99.90;;;;;;5062501;28;20735;-76
2021/09/15 09:34:11;;;;;;;8.13;7.32;;;21.60;99.90;;;;;;5063693;28;20237;-77
2021/09/15 09:36:39;;;;;;;8.93;8.13;;;21.70;99.90;;;;;;5061250;28;20599;-78
2021/09/15 09:39:11;;;;;;;9.30;8.50;;;21.70;99.90;;;;;;5064611;28;20642;-77
2021/09/15 09:41:38;;;;;;;9.80;9.00;;;21.70;99.90;;;;;;5062506;28;20605;-76
2021/09/15 09:44:05;;;;;;;10.07;9.07;;;21.70;99.90;;;;;;5069565;28;20240;-76
2021/09/15 09:46:34;;;;;;;10.48;9.57;;;21.80;99.90;;;;;;5068157;28;20233;-76
2021/09/15 09:49:02;;;;;;;10.45;9.45;;;21.80;99.90;;;;;;5067891;28;20317;-75
2021/09/15 09:51:33;;;;;;;10.77;9.88;;;21.70;99.90;;;;;;5085248;28;20226;-76
2021/09/15 09:54:21;;;;;;;9.52;8.75;;;21.80;99.90;;;;;;5072095;28;20226;-75
2021/09/15 09:56:50;;;;;;;9.40;8.60;;;21.80;99.90;;;;;;5061219;28;20217;-77
2021/09/15 09:59:19;;;;;;;9.93;9.02;;;21.80;99.90;;;;;;5067313;28;20234;-77
2021/09/15 10:01:48;;;;;;;8.75;7.97;;;21.90;99.90;;;;;;5065185;28;20218;-76
2021/09/15 10:04:15;;;;;;;9.40;8.40;;;22.00;99.90;;;;;;5062542;28;20242;-76
2021/09/15 10:06:45;;;;;;;10.38;9.40;;;22.20;99.90;;;;;;5068128;28;20727;-76
2021/09/15 10:09:13;;;;;;;9.70;8.88;;;22.30;99.90;;;;;;5066741;28;20531;-76
2021/09/15 10:11:41;;;;;;;12.10;11.07;;;22.50;99.90;;;;;;5066533;28;20240;-75
2021/09/15 10:14:11;;;;;;;9.95;9.15;;;22.60;99.90;;;;;;5064788;28;20233;-75
2021/09/15 10:16:44;;;;;;;10.52;9.63;;;22.60;99.90;;;;;;5064188;28;20518;-77
2021/09/15 10:19:14;;;;;;;10.45;9.55;;;22.60;99.90;;;;;;5062419;28;20222;-77
2021/09/15 10:21:43;;;;;;;9.65;8.85;;;22.60;99.90;;;;;;5066067;28;20221;-77
2021/09/15 10:24:13;;;;;;;9.57;8.50;;;22.80;99.90;;;;;;5066916;28;20627;-75
2021/09/15 10:26:43;;;;;;;10.57;9.57;;;22.90;99.90;;;;;;5064354;28;20225;-75
2021/09/15 10:29:26;;;;;;;11.07;10.10;;;23.00;99.90;;;;;;5068439;28;22493;-75
2021/09/15 10:32:06;;;;;;;11.25;10.30;;;23.00;99.90;;;;;;5066006;28;20323;-75
2021/09/15 10:34:49;;;;;;;12.18;10.98;;;23.20;99.90;;;;;;5068202;28;20233;-75
2021/09/15 10:37:53;;;;;;;12.48;11.15;;;23.20;99.90;;;;;;5064274;28;20664;-75
2021/09/15 10:40:43;;;;;;;11.38;10.27;;;23.20;99.90;;;;;;5068724;28;20693;-75
2021/09/15 10:43:39;;;;;;;9.63;8.93;;;23.40;99.90;;;;;;5076583;28;20322;-77
2021/09/15 10:46:26;;;;;;;10.63;9.73;;;23.50;99.90;;;;;;5065336;28;20218;-77
2021/09/15 10:49:46;;;;;;;10.65;9.55;;;23.80;99.90;;;;;;5068897;28;20216;-77
2021/09/15 10:52:36;;;;;;;10.65;9.75;;;24.10;99.90;;;;;;5053694;28;20884;-75
2021/09/15 10:55:15;;;;;;;11.10;10.10;;;24.40;99.90;;;;;;5072242;28;20677;-75
2021/09/15 10:57:44;;;;;;;10.40;9.50;;;24.40;99.90;;;;;;5064113;28;20341;-77
2021/09/15 11:00:27;;;;;;;9.32;8.52;;;24.70;99.90;;;;;;5067902;28;20584;-76
2021/09/15 11:02:56;;;;;;;12.00;10.80;;;24.80;99.90;;;;;;5064299;28;20226;-77
2021/09/15 11:05:45;;;;;;;10.95;9.95;;;24.90;99.90;;;;;;5068492;28;20229;-76
2021/09/15 11:08:37;;;;;;;10.18;9.15;;;24.90;99.90;;;;;;5063547;28;20256;-77
2021/09/15 11:11:06;;;;;;;11.75;10.40;;;24.90;99.90;;;;;;5058012;28;20236;-78
2021/09/15 11:13:50;;;;;;;10.88;9.88;;;24.90;99.90;;;;;;5067853;28;20699;-76
2021/09/15 11:16:35;;;;;;;10.82;9.82;;;24.80;99.90;;;;;;5065469;28;20233;-77
2021/09/15 11:19:07;;;;;;;10.35;9.27;;;24.70;99.90;;;;;;5070011;28;20622;-78
2021/09/15 11:21:38;;;;;;;10.07;9.25;;;24.70;99.90;;;;;;5068206;28;20239;-78
2021/09/15 11:24:11;;;;;;;11.18;9.73;;;24.80;99.90;;;;;;5068630;28;20241;-77
2021/09/15 11:26:47;;;;;;;10.65;9.75;;;24.70;99.90;;;;;;5068054;28;20894;-77
2021/09/15 11:29:35;;;;;;;10.50;9.60;;;24.60;99.90;;;;;;5066697;28;20691;-77
2021/09/15 11:32:02;;;;;;;11.27;10.27;;;24.50;99.90;;;;;;5067132;28;20268;-77
2021/09/15 11:34:30;;;;;;;10.52;9.48;;;24.40;99.90;;;;;;5066318;28;20234;-78
2021/09/15 11:36:58;;;;;;;9.70;8.90;;;24.40;99.90;;;;;;5076833;28;20279;-76
2021/09/15 11:39:26;;;;;;;9.63;8.90;;;24.50;99.90;;;;;;5066326;28;20630;-77
2021/09/15 11:42:02;;;;;;;10.00;9.20;;;24.80;99.90;;;;;;5063470;28;20236;-77
2021/09/15 11:44:31;;;;;;;9.57;8.63;;;24.80;99.90;;;;;;5067460;28;20225;-76
2021/09/15 11:47:03;;;;;;;9.20;8.40;;;24.70;99.90;;;;;;5059892;28;20714;-76
2021/09/15 11:49:31;;;;;;;9.60;8.80;;;24.60;99.90;;;;;;5069365;28;20443;-77
2021/09/15 11:51:59;;;;;;;10.18;9.27;;;24.40;99.90;;;;;;5067702;28;20735;-76
2021/09/15 11:54:27;;;;;;;9.10;8.18;;;24.20;99.90;;;;;;5062431;28;20307;-77
2021/09/15 11:57:04;;;;;;;8.68;7.97;;;24.10;99.90;;;;;;5064825;28;20233;-76
2021/09/15 11:59:34;;;;;;;9.02;8.32;;;24.10;99.90;;;;;;5062685;28;20238;-76
2021/09/15 12:02:02;;;;;;;8.52;7.85;;;24.10;99.90;;;;;;5064228;28;21179;-77
2021/09/15 12:04:30;;;;;;;9.02;8.25;;;24.10;99.90;;;;;;5069886;28;20715;-76
2021/09/15 12:06:58;;;;;;;9.82;8.82;;;24.00;99.90;;;;;;5063062;28;20225;-76
2021/09/15 12:09:25;;;;;;;8.85;7.95;;;24.00;99.90;;;;;;5064887;28;20222;-77
2021/09/15 12:11:54;;;;;;;9.00;8.30;;;23.90;99.90;;;;;;5067671;28;20232;-77
2021/09/15 12:14:21;;;;;;;8.85;8.15;;;23.90;99.90;;;;;;5065150;28;20225;-76
2021/09/15 12:16:49;;;;;;;8.88;8.18;;;23.90;99.90;;;;;;5066511;28;20647;-77
2021/09/15 12:19:18;;;;;;;8.80;8.07;;;24.00;99.90;;;;;;5062562;28;20726;-75
2021/09/15 12:21:47;;;;;;;8.75;8.05;;;24.00;99.90;;;;;;5067425;28;20230;-77
2021/09/15 12:24:15;;;;;;;7.97;7.38;;;24.10;99.90;;;;;;5066449;28;20778;-75
2021/09/15 12:26:42;;;;;;;8.70;8.00;;;24.30;99.90;;;;;;5068029;28;20225;-75
2021/09/15 12:29:11;;;;;;;8.05;7.45;;;24.50;99.90;;;;;;5067263;28;20446;-76
2021/09/15 12:31:41;;;;;;;9.32;8.52;;;24.60;99.90;;;;;;5066297;28;20415;-77
2021/09/15 12:34:10;;;;;;;10.15;9.25;;;24.60;99.90;;;;;;5062155;28;20237;-77
2021/09/15 12:36:38;;;;;;;10.32;9.43;;;24.50;99.90;;;;;;5064453;28;20229;-77
2021/09/15 12:39:12;;;;;;;12.45;9.57;;;24.40;99.90;;;;;;5065381;28;20975;-77
2021/09/15 12:41:59;;;;;;;10.10;9.20;;;24.30;99.90;;;;;;5065225;28;20228;-77
2021/09/15 12:44:34;;;;;;;10.10;9.20;;;24.20;99.90;;;;;;5065646;28;20233;-76
2021/09/15 12:47:06;;;;;;;8.98;8.18;;;24.10;99.90;;;;;;5064647;28;22642;-76
2021/09/15 12:49:35;;;;;;;8.27;7.57;;;24.00;99.90;;;;;;5063025;28;20378;-77
2021/09/15 12:52:06;;;;;;;9.20;8.40;;;24.00;99.90;;;;;;5064229;28;20241;-77
2021/09/15 12:54:34;;;;;;;8.95;8.23;;;24.00;99.90;;;;;;5061270;28;20634;-77
2021/09/15 12:57:25;;;;;;;9.48;8.70;;;24.10;99.90;;;;;;5063549;28;20719;-76
2021/09/15 12:59:52;;;;;;;7.80;7.10;;;24.10;99.90;;;;;;5068004;28;20426;-76
2021/09/15 13:02:25;;;;;;;9.65;8.85;;;24.10;99.90;;;;;;5058384;28;20222;-77